sensor_id;sensor_type;location;lat;lon;timestamp;P1;durP1;ratioP1;P2;durP2;ratioP2
44446;SDS011;30152;52.066;5.358;2024-01-06T08:24:34;16.85;;;11.07;;
44446;SDS011;30152;52.066;5.358;2024-01-06T08:26:59;18.10;;;10.90;;
44446;SDS011;30152;52.066;5.358;2024-01-06T08:29:25;16.20;;;10.30;;
44446;SDS011;30152;52.066;5.358;2024-01-06T08:31:51;19.83;;;10.63;;
44446;SDS011;30152;52.066;5.358;2024-01-06T08:34:19;15.55;;;10.13;;
44446;SDS011;30152;52.066;5.358;2024-01-06T08:36:45;17.33;;;10.40;;
44446;SDS011;30152;52.066;5.358;2024-01-06T08:39:11;17.13;;;9.70;;
44446;SDS011;30152;52.066;5.358;2024-01-06T08:41:37;16.65;;;9.73;;
44446;SDS011;30152;52.066;5.358;2024-01-06T08:44:03;17.20;;;9.60;;
44446;SDS011;30152;52.066;5.358;2024-01-06T08:46:29;19.75;;;10.05;;
44446;SDS011;30152;52.066;5.358;2024-01-06T08:48:55;20.98;;;10.48;;
44446;SDS011;30152;52.066;5.358;2024-01-06T08:51:21;19.55;;;10.45;;
44446;SDS011;30152;52.066;5.358;2024-01-06T08:53:49;18.92;;;9.75;;
44446;SDS011;30152;52.066;5.358;2024-01-06T08:56:14;15.05;;;9.40;;
44446;SDS011;30152;52.066;5.358;2024-01-06T08:58:42;16.63;;;9.27;;
44446;SDS011;30152;52.066;5.358;2024-01-06T09:01:08;14.95;;;7.63;;
44446;SDS011;30152;52.066;5.358;2024-01-06T09:03:34;15.18;;;8.48;;
44446;SDS011;30152;52.066;5.358;2024-01-06T09:06:00;15.95;;;9.10;;
44446;SDS011;30152;52.066;5.358;2024-01-06T09:08:26;18.23;;;9.40;;
44446;SDS011;30152;52.066;5.358;2024-01-06T09:10:53;13.82;;;8.63;;
44446;SDS011;30152;52.066;5.358;2024-01-06T09:13:23;17.58;;;8.40;;
44446;SDS011;30152;52.066;5.358;2024-01-06T09:15:49;19.17;;;9.48;;
44446;SDS011;30152;52.066;5.358;2024-01-06T09:18:16;17.55;;;9.02;;
44446;SDS011;30152;52.066;5.358;2024-01-06T09:20:42;14.55;;;7.72;;
44446;SDS011;30152;52.066;5.358;2024-01-06T09:23:08;15.68;;;8.40;;
44446;SDS011;30152;52.066;5.358;2024-01-06T09:25:35;18.90;;;9.70;;
44446;SDS011;30152;52.066;5.358;2024-01-06T09:28:01;16.45;;;8.82;;
44446;SDS011;30152;52.066;5.358;2024-01-06T09:30:26;15.07;;;8.17;;
44446;SDS011;30152;52.066;5.358;2024-01-06T09:32:52;14.95;;;8.63;;
44446;SDS011;30152;52.066;5.358;2024-01-06T09:35:18;17.38;;;8.50;;
44446;SDS011;30152;52.066;5.358;2024-01-06T09:37:45;17.50;;;9.48;;
44446;SDS011;30152;52.066;5.358;2024-01-06T09:40:11;15.53;;;8.23;;
44446;SDS011;30152;52.066;5.358;2024-01-06T09:42:40;16.58;;;8.68;;
44446;SDS011;30152;52.066;5.358;2024-01-06T09:45:06;15.25;;;8.30;;
44446;SDS011;30152;52.066;5.358;2024-01-06T09:47:33;15.83;;;8.30;;
44446;SDS011;30152;52.066;5.358;2024-01-06T09:50:00;15.23;;;7.82;;
44446;SDS011;30152;52.066;5.358;2024-01-06T09:52:33;15.07;;;8.40;;
44446;SDS011;30152;52.066;5.358;2024-01-06T09:55:01;14.52;;;7.70;;
44446;SDS011;30152;52.066;5.358;2024-01-06T09:57:30;14.20;;;8.02;;
44446;SDS011;30152;52.066;5.358;2024-01-06T09:59:57;14.25;;;8.18;;
44446;SDS011;30152;52.066;5.358;2024-01-06T10:02:24;14.73;;;8.40;;
44446;SDS011;30152;52.066;5.358;2024-01-06T10:04:52;13.50;;;7.65;;
44446;SDS011;30152;52.066;5.358;2024-01-06T10:07:17;15.20;;;7.85;;
44446;SDS011;30152;52.066;5.358;2024-01-06T10:09:43;14.43;;;7.60;;
44446;SDS011;30152;52.066;5.358;2024-01-06T10:12:09;13.57;;;7.72;;
44446;SDS011;30152;52.066;5.358;2024-01-06T10:14:35;15.55;;;8.60;;
44446;SDS011;30152;52.066;5.358;2024-01-06T10:17:02;16.43;;;8.30;;
44446;SDS011;30152;52.066;5.358;2024-01-06T10:19:32;14.95;;;7.75;;
44446;SDS011;30152;52.066;5.358;2024-01-06T10:21:58;17.25;;;7.93;;
44446;SDS011;30152;52.066;5.358;2024-01-06T10:24:27;15.47;;;7.83;;
44446;SDS011;30152;52.066;5.358;2024-01-06T10:26:53;16.07;;;8.13;;
44446;SDS011;30152;52.066;5.358;2024-01-06T10:29:19;14.70;;;7.38;;
44446;SDS011;30152;52.066;5.358;2024-01-06T10:31:47;13.82;;;7.50;;
44446;SDS011;30152;52.066;5.358;2024-01-06T10:34:13;14.50;;;7.60;;
44446;SDS011;30152;52.066;5.358;2024-01-06T10:36:39;13.97;;;7.67;;
44446;SDS011;30152;52.066;5.358;2024-01-06T10:39:05;15.53;;;8.50;;
44446;SDS011;30152;52.066;5.358;2024-01-06T10:41:32;14.67;;;8.70;;
44446;SDS011;30152;52.066;5.358;2024-01-06T10:44:00;14.13;;;7.90;;
44446;SDS011;30152;52.066;5.358;2024-01-06T10:46:26;12.32;;;7.22;;
44446;SDS011;30152;52.066;5.358;2024-01-06T10:48:53;13.55;;;7.38;;
44446;SDS011;30152;52.066;5.358;2024-01-06T10:51:21;15.27;;;7.40;;
44446;SDS011;30152;52.066;5.358;2024-01-06T10:53:48;14.10;;;8.35;;
44446;SDS011;30152;52.066;5.358;2024-01-06T10:56:15;16.75;;;7.88;;
44446;SDS011;30152;52.066;5.358;2024-01-06T10:58:45;12.82;;;7.43;;
44446;SDS011;30152;52.066;5.358;2024-01-06T11:01:12;15.02;;;7.97;;
44446;SDS011;30152;52.066;5.358;2024-01-06T11:03:38;13.40;;;7.70;;
44446;SDS011;30152;52.066;5.358;2024-01-06T11:06:05;14.57;;;7.97;;
44446;SDS011;30152;52.066;5.358;2024-01-06T11:08:33;13.43;;;7.40;;
44446;SDS011;30152;52.066;5.358;2024-01-06T11:11:02;14.90;;;8.60;;
44446;SDS011;30152;52.066;5.358;2024-01-06T11:13:28;14.38;;;8.10;;
44446;SDS011;30152;52.066;5.358;2024-01-06T11:15:54;14.55;;;8.27;;
44446;SDS011;30152;52.066;5.358;2024-01-06T11:18:39;13.43;;;7.78;;
44446;SDS011;30152;52.066;5.358;2024-01-06T11:26:32;14.35;;;8.30;;
44446;SDS011;30152;52.066;5.358;2024-01-06T11:29:00;13.52;;;8.00;;
44446;SDS011;30152;52.066;5.358;2024-01-06T11:31:28;17.23;;;8.52;;
44446;SDS011;30152;52.066;5.358;2024-01-06T11:33:56;15.02;;;8.05;;
44446;SDS011;30152;52.066;5.358;2024-01-06T11:36:22;15.45;;;8.13;;
44446;SDS011;30152;52.066;5.358;2024-01-06T11:38:50;13.90;;;7.63;;
44446;SDS011;30152;52.066;5.358;2024-01-06T11:41:51;16.25;;;8.60;;
44446;SDS011;30152;52.066;5.358;2024-01-06T11:44:10;15.15;;;8.27;;
44446;SDS011;30152;52.066;5.358;2024-01-06T11:46:36;14.07;;;7.93;;
44446;SDS011;30152;52.066;5.358;2024-01-06T11:49:02;14.02;;;6.90;;
44446;SDS011;30152;52.066;5.358;2024-01-06T11:51:28;14.15;;;7.88;;
44446;SDS011;30152;52.066;5.358;2024-01-06T11:53:54;13.75;;;7.78;;
44446;SDS011;30152;52.066;5.358;2024-01-06T11:56:20;14.83;;;7.80;;
44446;SDS011;30152;52.066;5.358;2024-01-06T11:58:47;12.68;;;7.60;;
44446;SDS011;30152;52.066;5.358;2024-01-06T12:01:13;13.95;;;7.93;;
44446;SDS011;30152;52.066;5.358;2024-01-06T12:03:40;13.52;;;7.75;;
44446;SDS011;30152;52.066;5.358;2024-01-06T12:06:06;14.25;;;7.78;;
44446;SDS011;30152;52.066;5.358;2024-01-06T12:08:32;13.68;;;7.85;;
44446;SDS011;30152;52.066;5.358;2024-01-06T12:11:01;16.13;;;7.68;;
44446;SDS011;30152;52.066;5.358;2024-01-06T12:13:28;14.77;;;7.88;;
44446;SDS011;30152;52.066;5.358;2024-01-06T12:15:53;13.30;;;7.83;;
44446;SDS011;30152;52.066;5.358;2024-01-06T12:18:21;13.23;;;7.85;;
44446;SDS011;30152;52.066;5.358;2024-01-06T12:20:47;13.45;;;8.27;;
44446;SDS011;30152;52.066;5.358;2024-01-06T12:23:23;13.20;;;7.65;;
44446;SDS011;30152;52.066;5.358;2024-01-06T12:25:50;13.30;;;7.90;;
44446;SDS011;30152;52.066;5.358;2024-01-06T12:28:16;15.80;;;8.18;;
44446;SDS011;30152;52.066;5.358;2024-01-06T12:30:42;14.52;;;7.45;;
44446;SDS011;30152;52.066;5.358;2024-01-06T12:33:09;15.85;;;8.25;;
44446;SDS011;30152;52.066;5.358;2024-01-06T12:35:35;13.15;;;7.70;;
44446;SDS011;30152;52.066;5.358;2024-01-06T12:38:05;14.10;;;7.90;;
44446;SDS011;30152;52.066;5.358;2024-01-06T12:40:33;14.18;;;8.38;;
44446;SDS011;30152;52.066;5.358;2024-01-06T12:43:07;14.20;;;7.97;;
44446;SDS011;30152;52.066;5.358;2024-01-06T12:45:33;14.23;;;7.93;;
44446;SDS011;30152;52.066;5.358;2024-01-06T12:47:58;13.38;;;8.35;;
44446;SDS011;30152;52.066;5.358;2024-01-06T12:50:26;12.88;;;8.07;;
44446;SDS011;30152;52.066;5.358;2024-01-06T12:52:51;14.38;;;8.15;;
44446;SDS011;30152;52.066;5.358;2024-01-06T12:55:17;14.93;;;8.43;;
44446;SDS011;30152;52.066;5.358;2024-01-06T12:57:44;15.18;;;8.98;;
44446;SDS011;30152;52.066;5.358;2024-01-06T13:00:10;15.40;;;8.63;;
44446;SDS011;30152;52.066;5.358;2024-01-06T13:02:37;14.23;;;8.65;;
44446;SDS011;30152;52.066;5.358;2024-01-06T13:05:03;14.97;;;8.70;;
44446;SDS011;30152;52.066;5.358;2024-01-06T13:07:29;17.33;;;9.93;;
44446;SDS011;30152;52.066;5.358;2024-01-06T13:09:55;17.42;;;9.93;;
44446;SDS011;30152;52.066;5.358;2024-01-06T13:12:21;18.52;;;10.27;;
44446;SDS011;30152;52.066;5.358;2024-01-06T13:14:48;15.98;;;9.88;;
44446;SDS011;30152;52.066;5.358;2024-01-06T13:17:15;16.13;;;9.93;;
44446;SDS011;30152;52.066;5.358;2024-01-06T13:19:41;17.50;;;10.32;;
44446;SDS011;30152;52.066;5.358;2024-01-06T13:22:07;18.03;;;10.40;;
44446;SDS011;30152;52.066;5.358;2024-01-06T13:24:33;16.38;;;9.70;;
44446;SDS011;30152;52.066;5.358;2024-01-06T13:26:59;18.95;;;10.10;;
44446;SDS011;30152;52.066;5.358;2024-01-06T13:29:27;17.80;;;10.37;;
44446;SDS011;30152;52.066;5.358;2024-01-06T13:31:53;16.73;;;9.63;;
44446;SDS011;30152;52.066;5.358;2024-01-06T13:34:19;18.33;;;10.83;;
44446;SDS011;30152;52.066;5.358;2024-01-06T13:36:46;17.70;;;10.18;;
44446;SDS011;30152;52.066;5.358;2024-01-06T13:39:12;18.45;;;10.38;;
44446;SDS011;30152;52.066;5.358;2024-01-06T13:41:45;18.02;;;10.38;;
44446;SDS011;30152;52.066;5.358;2024-01-06T13:44:11;19.50;;;10.20;;
44446;SDS011;30152;52.066;5.358;2024-01-06T13:46:37;16.73;;;10.23;;
44446;SDS011;30152;52.066;5.358;2024-01-06T13:49:03;21.90;;;10.98;;
44446;SDS011;30152;52.066;5.358;2024-01-06T13:51:29;20.75;;;10.77;;
44446;SDS011;30152;52.066;5.358;2024-01-06T13:53:55;19.80;;;11.05;;
44446;SDS011;30152;52.066;5.358;2024-01-06T13:56:22;18.85;;;10.73;;
44446;SDS011;30152;52.066;5.358;2024-01-06T13:58:48;18.80;;;10.47;;
44446;SDS011;30152;52.066;5.358;2024-01-06T14:01:13;16.50;;;10.50;;
44446;SDS011;30152;52.066;5.358;2024-01-06T14:03:39;17.38;;;10.50;;
44446;SDS011;30152;52.066;5.358;2024-01-06T14:06:05;19.48;;;11.05;;
44446;SDS011;30152;52.066;5.358;2024-01-06T14:08:32;18.98;;;11.30;;
44446;SDS011;30152;52.066;5.358;2024-01-06T14:10:58;18.33;;;10.85;;
44446;SDS011;30152;52.066;5.358;2024-01-06T14:13:24;18.88;;;10.88;;
44446;SDS011;30152;52.066;5.358;2024-01-06T14:15:51;18.52;;;10.70;;
44446;SDS011;30152;52.066;5.358;2024-01-06T14:18:17;17.40;;;10.65;;
44446;SDS011;30152;52.066;5.358;2024-01-06T14:20:43;17.35;;;10.60;;
44446;SDS011;30152;52.066;5.358;2024-01-06T14:23:08;18.90;;;10.65;;
44446;SDS011;30152;52.066;5.358;2024-01-06T14:25:35;16.60;;;10.27;;
44446;SDS011;30152;52.066;5.358;2024-01-06T14:28:01;20.67;;;11.57;;
44446;SDS011;30152;52.066;5.358;2024-01-06T14:30:27;20.33;;;11.40;;
44446;SDS011;30152;52.066;5.358;2024-01-06T14:32:54;17.92;;;10.75;;
44446;SDS011;30152;52.066;5.358;2024-01-06T14:35:21;20.35;;;11.48;;
44446;SDS011;30152;52.066;5.358;2024-01-06T14:37:47;18.40;;;11.57;;
44446;SDS011;30152;52.066;5.358;2024-01-06T14:40:12;18.90;;;11.67;;
44446;SDS011;30152;52.066;5.358;2024-01-06T14:42:39;18.73;;;11.48;;
44446;SDS011;30152;52.066;5.358;2024-01-06T14:45:05;18.30;;;10.95;;
44446;SDS011;30152;52.066;5.358;2024-01-06T14:47:33;17.92;;;10.60;;
44446;SDS011;30152;52.066;5.358;2024-01-06T14:49:59;18.52;;;10.38;;
44446;SDS011;30152;52.066;5.358;2024-01-06T14:52:25;16.02;;;10.70;;
44446;SDS011;30152;52.066;5.358;2024-01-06T14:54:51;18.50;;;10.43;;
44446;SDS011;30152;52.066;5.358;2024-01-06T14:57:17;18.38;;;10.63;;
44446;SDS011;30152;52.066;5.358;2024-01-06T14:59:42;17.88;;;10.20;;
44446;SDS011;30152;52.066;5.358;2024-01-06T15:02:08;17.60;;;10.82;;
44446;SDS011;30152;52.066;5.358;2024-01-06T15:04:36;20.55;;;10.23;;
44446;SDS011;30152;52.066;5.358;2024-01-06T15:07:02;16.98;;;9.93;;
44446;SDS011;30152;52.066;5.358;2024-01-06T15:09:28;16.45;;;9.80;;
44446;SDS011;30152;52.066;5.358;2024-01-06T15:11:54;20.10;;;10.15;;
44446;SDS011;30152;52.066;5.358;2024-01-06T15:14:20;18.65;;;10.35;;
44446;SDS011;30152;52.066;5.358;2024-01-06T15:16:46;15.37;;;9.57;;
44446;SDS011;30152;52.066;5.358;2024-01-06T15:19:11;18.17;;;10.30;;
44446;SDS011;30152;52.066;5.358;2024-01-06T15:21:37;17.02;;;10.10;;
44446;SDS011;30152;52.066;5.358;2024-01-06T15:24:03;16.35;;;10.15;;
44446;SDS011;30152;52.066;5.358;2024-01-06T15:26:29;17.25;;;10.50;;
44446;SDS011;30152;52.066;5.358;2024-01-06T15:28:55;17.92;;;10.23;;
44446;SDS011;30152;52.066;5.358;2024-01-06T15:31:23;16.23;;;9.50;;
44446;SDS011;30152;52.066;5.358;2024-01-06T15:33:49;18.02;;;10.60;;
44446;SDS011;30152;52.066;5.358;2024-01-06T15:36:15;17.43;;;9.83;;
44446;SDS011;30152;52.066;5.358;2024-01-06T15:38:41;16.43;;;10.20;;
44446;SDS011;30152;52.066;5.358;2024-01-06T15:41:07;16.30;;;9.70;;
44446;SDS011;30152;52.066;5.358;2024-01-06T15:43:33;14.27;;;9.00;;
44446;SDS011;30152;52.066;5.358;2024-01-06T15:45:59;15.10;;;8.48;;
44446;SDS011;30152;52.066;5.358;2024-01-06T15:48:25;14.13;;;8.65;;
44446;SDS011;30152;52.066;5.358;2024-01-06T15:50:50;15.37;;;8.60;;
44446;SDS011;30152;52.066;5.358;2024-01-06T15:53:17;13.57;;;8.57;;
44446;SDS011;30152;52.066;5.358;2024-01-06T15:55:43;16.40;;;10.82;;
44446;SDS011;30152;52.066;5.358;2024-01-06T15:58:08;15.80;;;9.40;;
44446;SDS011;30152;52.066;5.358;2024-01-06T16:00:34;11.88;;;7.28;;
44446;SDS011;30152;52.066;5.358;2024-01-06T16:03:00;11.03;;;7.43;;
44446;SDS011;30152;52.066;5.358;2024-01-06T16:05:26;14.40;;;7.90;;
44446;SDS011;30152;52.066;5.358;2024-01-06T16:07:52;13.52;;;7.40;;
44446;SDS011;30152;52.066;5.358;2024-01-06T16:10:21;11.32;;;7.35;;
44446;SDS011;30152;52.066;5.358;2024-01-06T16:12:48;13.35;;;7.57;;
44446;SDS011;30152;52.066;5.358;2024-01-06T16:15:16;12.60;;;7.43;;
44446;SDS011;30152;52.066;5.358;2024-01-06T16:17:42;12.63;;;7.35;;
44446;SDS011;30152;52.066;5.358;2024-01-06T16:20:07;15.73;;;9.18;;
44446;SDS011;30152;52.066;5.358;2024-01-06T16:22:35;18.25;;;10.10;;
44446;SDS011;30152;52.066;5.358;2024-01-06T16:25:01;10.97;;;6.47;;
44446;SDS011;30152;52.066;5.358;2024-01-06T16:27:27;12.57;;;6.90;;
44446;SDS011;30152;52.066;5.358;2024-01-06T16:29:52;13.33;;;7.27;;
44446;SDS011;30152;52.066;5.358;2024-01-06T16:32:18;13.27;;;8.07;;
44446;SDS011;30152;52.066;5.358;2024-01-06T16:34:44;14.60;;;7.23;;
44446;SDS011;30152;52.066;5.358;2024-01-06T16:37:12;12.27;;;7.57;;
44446;SDS011;30152;52.066;5.358;2024-01-06T16:39:38;14.10;;;8.63;;
44446;SDS011;30152;52.066;5.358;2024-01-06T16:42:04;15.75;;;8.00;;
44446;SDS011;30152;52.066;5.358;2024-01-06T16:44:31;13.80;;;8.23;;
44446;SDS011;30152;52.066;5.358;2024-01-06T16:46:57;13.13;;;8.23;;
44446;SDS011;30152;52.066;5.358;2024-01-06T16:49:23;12.57;;;7.97;;
44446;SDS011;30152;52.066;5.358;2024-01-06T16:51:52;15.35;;;9.32;;
44446;SDS011;30152;52.066;5.358;2024-01-06T16:54:18;13.77;;;8.53;;
44446;SDS011;30152;52.066;5.358;2024-01-06T16:56:44;12.47;;;8.43;;
44446;SDS011;30152;52.066;5.358;2024-01-06T16:59:11;13.45;;;8.52;;
44446;SDS011;30152;52.066;5.358;2024-01-06T17:01:37;13.73;;;8.83;;
44446;SDS011;30152;52.066;5.358;2024-01-06T17:04:02;13.83;;;8.93;;
44446;SDS011;30152;52.066;5.358;2024-01-06T17:06:28;13.23;;;8.65;;
44446;SDS011;30152;52.066;5.358;2024-01-06T17:08:54;14.70;;;9.45;;
44446;SDS011;30152;52.066;5.358;2024-01-06T17:11:20;14.30;;;9.50;;
44446;SDS011;30152;52.066;5.358;2024-01-06T17:13:47;19.83;;;12.03;;
44446;SDS011;30152;52.066;5.358;2024-01-06T17:16:13;14.88;;;9.35;;
44446;SDS011;30152;52.066;5.358;2024-01-06T17:18:39;27.70;;;14.63;;
44446;SDS011;30152;52.066;5.358;2024-01-06T17:21:05;14.93;;;9.50;;
44446;SDS011;30152;52.066;5.358;2024-01-06T17:23:31;14.13;;;9.43;;
44446;SDS011;30152;52.066;5.358;2024-01-06T17:25:57;29.65;;;14.60;;
44446;SDS011;30152;52.066;5.358;2024-01-06T17:28:24;16.90;;;11.02;;
44446;SDS011;30152;52.066;5.358;2024-01-06T17:30:50;15.43;;;10.07;;
44446;SDS011;30152;52.066;5.358;2024-01-06T17:33:16;22.08;;;12.25;;
44446;SDS011;30152;52.066;5.358;2024-01-06T17:35:42;15.75;;;10.23;;
44446;SDS011;30152;52.066;5.358;2024-01-06T17:38:09;15.70;;;10.20;;
44446;SDS011;30152;52.066;5.358;2024-01-06T17:40:35;14.70;;;10.02;;
44446;SDS011;30152;52.066;5.358;2024-01-06T17:43:02;16.30;;;10.98;;
44446;SDS011;30152;52.066;5.358;2024-01-06T17:45:28;16.25;;;10.55;;
44446;SDS011;30152;52.066;5.358;2024-01-06T17:47:54;15.77;;;10.85;;
44446;SDS011;30152;52.066;5.358;2024-01-06T17:50:20;14.80;;;10.32;;
44446;SDS011;30152;52.066;5.358;2024-01-06T17:52:46;16.80;;;11.55;;
44446;SDS011;30152;52.066;5.358;2024-01-06T17:55:14;15.93;;;10.43;;
44446;SDS011;30152;52.066;5.358;2024-01-06T17:57:42;15.82;;;11.07;;
44446;SDS011;30152;52.066;5.358;2024-01-06T18:00:08;19.08;;;11.32;;
44446;SDS011;30152;52.066;5.358;2024-01-06T18:02:34;17.77;;;11.65;;
44446;SDS011;30152;52.066;5.358;2024-01-06T18:05:01;18.05;;;12.63;;
44446;SDS011;30152;52.066;5.358;2024-01-06T18:07:27;18.55;;;12.23;;
44446;SDS011;30152;52.066;5.358;2024-01-06T18:09:55;16.40;;;11.35;;
44446;SDS011;30152;52.066;5.358;2024-01-06T18:12:21;18.13;;;12.32;;
44446;SDS011;30152;52.066;5.358;2024-01-06T18:14:47;18.90;;;12.93;;
44446;SDS011;30152;52.066;5.358;2024-01-06T18:17:13;19.95;;;12.85;;
44446;SDS011;30152;52.066;5.358;2024-01-06T18:19:40;19.23;;;12.85;;
44446;SDS011;30152;52.066;5.358;2024-01-06T18:22:06;19.90;;;12.77;;
44446;SDS011;30152;52.066;5.358;2024-01-06T18:24:34;18.05;;;12.40;;
44446;SDS011;30152;52.066;5.358;2024-01-06T18:27:01;17.88;;;12.70;;
44446;SDS011;30152;52.066;5.358;2024-01-06T18:29:27;17.17;;;12.15;;
44446;SDS011;30152;52.066;5.358;2024-01-06T18:31:58;18.73;;;12.45;;
44446;SDS011;30152;52.066;5.358;2024-01-06T18:34:24;18.40;;;12.75;;
44446;SDS011;30152;52.066;5.358;2024-01-06T18:36:50;17.88;;;11.88;;
44446;SDS011;30152;52.066;5.358;2024-01-06T18:39:16;18.52;;;12.18;;
44446;SDS011;30152;52.066;5.358;2024-01-06T18:41:42;17.17;;;12.05;;
44446;SDS011;30152;52.066;5.358;2024-01-06T18:44:07;22.05;;;14.40;;
44446;SDS011;30152;52.066;5.358;2024-01-06T18:46:35;18.02;;;12.73;;
44446;SDS011;30152;52.066;5.358;2024-01-06T18:49:01;19.77;;;12.75;;
44446;SDS011;30152;52.066;5.358;2024-01-06T18:51:27;19.02;;;12.52;;
44446;SDS011;30152;52.066;5.358;2024-01-06T18:53:58;20.15;;;12.90;;
44446;SDS011;30152;52.066;5.358;2024-01-06T18:56:24;18.08;;;12.32;;
44446;SDS011;30152;52.066;5.358;2024-01-06T18:58:52;17.98;;;12.07;;
44446;SDS011;30152;52.066;5.358;2024-01-06T19:01:20;17.90;;;11.77;;
44446;SDS011;30152;52.066;5.358;2024-01-06T19:03:45;19.33;;;13.07;;
44446;SDS011;30152;52.066;5.358;2024-01-06T19:06:11;20.25;;;13.27;;
44446;SDS011;30152;52.066;5.358;2024-01-06T19:08:37;19.10;;;12.63;;
44446;SDS011;30152;52.066;5.358;2024-01-06T19:11:04;19.73;;;12.80;;
44446;SDS011;30152;52.066;5.358;2024-01-06T19:13:30;20.30;;;12.87;;
44446;SDS011;30152;52.066;5.358;2024-01-06T19:15:56;19.57;;;13.03;;
44446;SDS011;30152;52.066;5.358;2024-01-06T19:18:22;20.92;;;13.27;;
44446;SDS011;30152;52.066;5.358;2024-01-06T19:20:47;19.63;;;13.25;;
44446;SDS011;30152;52.066;5.358;2024-01-06T19:23:13;21.13;;;13.55;;
44446;SDS011;30152;52.066;5.358;2024-01-06T19:25:39;21.83;;;13.93;;
44446;SDS011;30152;52.066;5.358;2024-01-06T19:28:05;20.58;;;13.50;;
44446;SDS011;30152;52.066;5.358;2024-01-06T19:30:32;19.93;;;13.60;;
44446;SDS011;30152;52.066;5.358;2024-01-06T19:32:59;21.92;;;13.50;;
44446;SDS011;30152;52.066;5.358;2024-01-06T19:35:25;21.80;;;13.93;;
44446;SDS011;30152;52.066;5.358;2024-01-06T19:37:50;23.48;;;15.00;;
44446;SDS011;30152;52.066;5.358;2024-01-06T19:40:16;20.65;;;13.35;;
44446;SDS011;30152;52.066;5.358;2024-01-06T19:42:45;21.10;;;13.88;;
44446;SDS011;30152;52.066;5.358;2024-01-06T19:45:11;23.00;;;14.23;;
44446;SDS011;30152;52.066;5.358;2024-01-06T19:47:38;20.53;;;13.60;;
44446;SDS011;30152;52.066;5.358;2024-01-06T19:50:03;21.65;;;13.65;;
44446;SDS011;30152;52.066;5.358;2024-01-06T19:52:29;23.15;;;14.38;;
44446;SDS011;30152;52.066;5.358;2024-01-06T19:54:55;22.53;;;14.23;;
44446;SDS011;30152;52.066;5.358;2024-01-06T19:57:22;22.88;;;14.68;;
44446;SDS011;30152;52.066;5.358;2024-01-06T19:59:48;21.70;;;13.88;;
44446;SDS011;30152;52.066;5.358;2024-01-06T20:02:16;20.73;;;13.38;;
44446;SDS011;30152;52.066;5.358;2024-01-06T20:04:42;22.00;;;14.07;;
44446;SDS011;30152;52.066;5.358;2024-01-06T20:07:08;21.93;;;13.93;;
44446;SDS011;30152;52.066;5.358;2024-01-06T20:09:34;23.92;;;14.55;;
44446;SDS011;30152;52.066;5.358;2024-01-06T20:12:00;21.08;;;14.05;;
44446;SDS011;30152;52.066;5.358;2024-01-06T20:14:26;21.92;;;14.70;;
44446;SDS011;30152;52.066;5.358;2024-01-06T20:16:52;23.27;;;14.73;;
44446;SDS011;30152;52.066;5.358;2024-01-06T20:19:21;22.92;;;15.27;;
44446;SDS011;30152;52.066;5.358;2024-01-06T20:21:48;23.90;;;15.95;;
44446;SDS011;30152;52.066;5.358;2024-01-06T20:24:14;23.05;;;14.98;;
44446;SDS011;30152;52.066;5.358;2024-01-06T20:26:40;22.27;;;14.38;;
44446;SDS011;30152;52.066;5.358;2024-01-06T20:29:06;22.92;;;15.00;;
44446;SDS011;30152;52.066;5.358;2024-01-06T20:31:32;23.63;;;15.38;;
44446;SDS011;30152;52.066;5.358;2024-01-06T20:33:58;25.55;;;15.60;;
44446;SDS011;30152;52.066;5.358;2024-01-06T20:36:24;23.52;;;14.48;;
44446;SDS011;30152;52.066;5.358;2024-01-06T20:38:50;23.73;;;15.02;;
44446;SDS011;30152;52.066;5.358;2024-01-06T20:41:17;23.08;;;14.93;;
44446;SDS011;30152;52.066;5.358;2024-01-06T20:43:42;22.13;;;14.68;;
44446;SDS011;30152;52.066;5.358;2024-01-06T20:46:09;22.27;;;14.60;;
44446;SDS011;30152;52.066;5.358;2024-01-06T20:48:41;20.92;;;14.23;;
44446;SDS011;30152;52.066;5.358;2024-01-06T20:51:08;24.00;;;15.05;;
44446;SDS011;30152;52.066;5.358;2024-01-06T20:53:36;23.60;;;15.50;;
44446;SDS011;30152;52.066;5.358;2024-01-06T20:56:02;22.73;;;15.07;;
44446;SDS011;30152;52.066;5.358;2024-01-06T20:58:28;22.92;;;14.98;;
44446;SDS011;30152;52.066;5.358;2024-01-06T21:00:54;23.35;;;15.05;;
44446;SDS011;30152;52.066;5.358;2024-01-06T21:03:20;22.02;;;14.82;;
44446;SDS011;30152;52.066;5.358;2024-01-06T21:05:46;22.80;;;15.15;;
44446;SDS011;30152;52.066;5.358;2024-01-06T21:08:12;22.05;;;14.48;;
44446;SDS011;30152;52.066;5.358;2024-01-06T21:10:38;25.23;;;15.33;;
44446;SDS011;30152;52.066;5.358;2024-01-06T21:13:04;23.50;;;15.18;;
44446;SDS011;30152;52.066;5.358;2024-01-06T21:15:30;23.85;;;15.32;;
44446;SDS011;30152;52.066;5.358;2024-01-06T21:17:56;24.23;;;15.40;;
44446;SDS011;30152;52.066;5.358;2024-01-06T21:20:22;23.65;;;15.98;;
44446;SDS011;30152;52.066;5.358;2024-01-06T21:22:47;24.37;;;16.07;;
44446;SDS011;30152;52.066;5.358;2024-01-06T21:25:20;24.10;;;15.13;;
44446;SDS011;30152;52.066;5.358;2024-01-06T21:27:47;23.30;;;15.63;;
44446;SDS011;30152;52.066;5.358;2024-01-06T21:30:13;24.80;;;15.88;;
44446;SDS011;30152;52.066;5.358;2024-01-06T21:32:39;24.92;;;15.55;;
44446;SDS011;30152;52.066;5.358;2024-01-06T21:35:07;24.75;;;16.40;;
44446;SDS011;30152;52.066;5.358;2024-01-06T21:37:34;25.58;;;16.90;;
44446;SDS011;30152;52.066;5.358;2024-01-06T21:39:59;25.67;;;16.42;;
44446;SDS011;30152;52.066;5.358;2024-01-06T21:42:31;24.35;;;15.98;;
44446;SDS011;30152;52.066;5.358;2024-01-06T21:44:57;25.17;;;16.52;;
44446;SDS011;30152;52.066;5.358;2024-01-06T21:47:25;24.58;;;16.33;;
44446;SDS011;30152;52.066;5.358;2024-01-06T21:49:51;28.05;;;17.10;;
44446;SDS011;30152;52.066;5.358;2024-01-06T21:52:17;22.75;;;15.10;;
44446;SDS011;30152;52.066;5.358;2024-01-06T21:54:44;24.65;;;15.07;;
44446;SDS011;30152;52.066;5.358;2024-01-06T21:57:09;22.53;;;14.57;;
44446;SDS011;30152;52.066;5.358;2024-01-06T21:59:35;23.63;;;14.88;;
